sensor_id;sensor_type;location;lat;lon;timestamp;pressure;altitude;pressure_sealevel;temperature;humidity
62928;BME280;51070;52.236;-0.892;2022-08-21T00:01:03;100724.55;;;17.40;60.43
62928;BME280;51070;52.236;-0.892;2022-08-21T00:03:31;100721.75;;;17.39;60.39
62928;BME280;51070;52.236;-0.892;2022-08-21T00:05:56;100719.13;;;17.36;60.51
62928;BME280;51070;52.236;-0.892;2022-08-21T00:08:22;100716.49;;;17.32;60.89
62928;BME280;51070;52.236;-0.892;2022-08-21T00:10:47;100712.98;;;17.28;60.97
62928;BME280;51070;52.236;-0.892;2022-08-21T00:13:13;100704.91;;;17.24;61.21
62928;BME280;51070;52.236;-0.892;2022-08-21T00:15:39;100706.47;;;17.19;61.32
62928;BME280;51070;52.236;-0.892;2022-08-21T00:18:05;100702.44;;;17.15;62.07
62928;BME280;51070;52.236;-0.892;2022-08-21T00:20:32;100700.48;;;17.07;62.44
62928;BME280;51070;52.236;-0.892;2022-08-21T00:22:57;100690.14;;;17.01;62.44
62928;BME280;51070;52.236;-0.892;2022-08-21T00:25:23;100686.29;;;16.98;62.56
62928;BME280;51070;52.236;-0.892;2022-08-21T00:27:49;100684.86;;;16.95;62.72
62928;BME280;51070;52.236;-0.892;2022-08-21T00:30:15;100679.11;;;16.93;62.91
62928;BME280;51070;52.236;-0.892;2022-08-21T00:32:41;100673.33;;;16.90;63.37
62928;BME280;51070;52.236;-0.892;2022-08-21T00:35:09;100675.04;;;16.86;63.51
62928;BME280;51070;52.236;-0.892;2022-08-21T00:37:37;100675.56;;;16.83;63.65
62928;BME280;51070;52.236;-0.892;2022-08-21T00:40:02;100675.19;;;16.82;63.83
62928;BME280;51070;52.236;-0.892;2022-08-21T00:42:28;100671.16;;;16.79;64.02
62928;BME280;51070;52.236;-0.892;2022-08-21T00:44:54;100666.79;;;16.76;64.33
62928;BME280;51070;52.236;-0.892;2022-08-21T00:47:19;100666.77;;;16.74;64.61
62928;BME280;51070;52.236;-0.892;2022-08-21T00:49:45;100666.59;;;16.72;64.58
62928;BME280;51070;52.236;-0.892;2022-08-21T00:52:19;100663.80;;;16.71;64.77
62928;BME280;51070;52.236;-0.892;2022-08-21T00:54:46;100666.20;;;16.68;65.38
62928;BME280;51070;52.236;-0.892;2022-08-21T00:57:16;100666.00;;;16.62;65.58
62928;BME280;51070;52.236;-0.892;2022-08-21T00:59:44;100665.80;;;16.60;65.46
62928;BME280;51070;52.236;-0.892;2022-08-21T01:02:11;100662.28;;;16.58;65.71
62928;BME280;51070;52.236;-0.892;2022-08-21T01:04:36;100660.33;;;16.55;66.27
62928;BME280;51070;52.236;-0.892;2022-08-21T01:07:02;100657.85;;;16.48;66.16
62928;BME280;51070;52.236;-0.892;2022-08-21T01:09:27;100660.08;;;16.44;66.30
62928;BME280;51070;52.236;-0.892;2022-08-21T01:11:53;100659.88;;;16.41;66.63
62928;BME280;51070;52.236;-0.892;2022-08-21T01:14:19;100664.05;;;16.39;66.65
62928;BME280;51070;52.236;-0.892;2022-08-21T01:16:48;100669.80;;;16.39;66.75
62928;BME280;51070;52.236;-0.892;2022-08-21T01:19:16;100676.42;;;16.38;66.77
62928;BME280;51070;52.236;-0.892;2022-08-21T01:21:42;100674.84;;;16.36;66.73
62928;BME280;51070;52.236;-0.892;2022-08-21T01:24:07;100674.84;;;16.34;66.75
62928;BME280;51070;52.236;-0.892;2022-08-21T01:26:33;100675.00;;;16.33;66.81
62928;BME280;51070;52.236;-0.892;2022-08-21T01:31:27;100672.71;;;16.30;66.95
62928;BME280;51070;52.236;-0.892;2022-08-21T01:33:53;100671.10;;;16.27;66.98
62928;BME280;51070;52.236;-0.892;2022-08-21T01:36:19;100673.52;;;16.25;67.01
62928;BME280;51070;52.236;-0.892;2022-08-21T01:38:45;100674.22;;;16.23;67.00
62928;BME280;51070;52.236;-0.892;2022-08-21T01:41:12;100667.73;;;16.20;67.28
62928;BME280;51070;52.236;-0.892;2022-08-21T01:43:38;100667.88;;;16.17;67.38
62928;BME280;51070;52.236;-0.892;2022-08-21T01:46:03;100666.47;;;16.14;67.48
62928;BME280;51070;52.236;-0.892;2022-08-21T01:48:29;100665.73;;;16.11;67.60
62928;BME280;51070;52.236;-0.892;2022-08-21T01:50:54;100658.91;;;16.08;67.77
62928;BME280;51070;52.236;-0.892;2022-08-21T01:53:19;100666.54;;;16.05;67.93
62928;BME280;51070;52.236;-0.892;2022-08-21T01:55:45;100668.64;;;16.03;68.06
62928;BME280;51070;52.236;-0.892;2022-08-21T01:58:10;100668.30;;;16.03;68.15
62928;BME280;51070;52.236;-0.892;2022-08-21T02:00:35;100669.16;;;16.04;68.19
62928;BME280;51070;52.236;-0.892;2022-08-21T02:03:00;100667.40;;;16.04;68.36
62928;BME280;51070;52.236;-0.892;2022-08-21T02:05:26;100668.27;;;16.05;68.54
62928;BME280;51070;52.236;-0.892;2022-08-21T02:07:52;100670.74;;;16.06;68.56
62928;BME280;51070;52.236;-0.892;2022-08-21T02:10:19;100667.27;;;16.07;68.67
62928;BME280;51070;52.236;-0.892;2022-08-21T02:12:45;100666.92;;;16.06;68.71
62928;BME280;51070;52.236;-0.892;2022-08-21T02:15:11;100661.34;;;16.06;68.79
62928;BME280;51070;52.236;-0.892;2022-08-21T02:17:44;100665.88;;;16.07;68.92
62928;BME280;51070;52.236;-0.892;2022-08-21T02:20:11;100668.15;;;16.08;68.93
62928;BME280;51070;52.236;-0.892;2022-08-21T02:22:40;100668.85;;;16.07;69.04
62928;BME280;51070;52.236;-0.892;2022-08-21T02:25:05;100666.37;;;16.04;69.50
62928;BME280;51070;52.236;-0.892;2022-08-21T02:27:36;100661.63;;;16.00;69.65
62928;BME280;51070;52.236;-0.892;2022-08-21T02:30:02;100658.11;;;15.95;69.74
62928;BME280;51070;52.236;-0.892;2022-08-21T02:32:28;100659.11;;;15.91;70.23
62928;BME280;51070;52.236;-0.892;2022-08-21T02:34:53;100660.46;;;15.88;69.96
62928;BME280;51070;52.236;-0.892;2022-08-21T02:37:19;100658.00;;;15.84;70.11
62928;BME280;51070;52.236;-0.892;2022-08-21T02:39:44;100659.70;;;15.82;70.06
62928;BME280;51070;52.236;-0.892;2022-08-21T02:42:09;100659.38;;;15.81;70.05
62928;BME280;51070;52.236;-0.892;2022-08-21T02:44:35;100659.36;;;15.80;70.16
62928;BME280;51070;52.236;-0.892;2022-08-21T02:47:00;100658.84;;;15.80;70.23
62928;BME280;51070;52.236;-0.892;2022-08-21T02:49:25;100662.32;;;15.80;70.22
62928;BME280;51070;52.236;-0.892;2022-08-21T02:51:50;100663.55;;;15.81;70.29
62928;BME280;51070;52.236;-0.892;2022-08-21T02:54:16;100661.13;;;15.84;70.35
62928;BME280;51070;52.236;-0.892;2022-08-21T02:56:41;100660.27;;;15.84;70.27
62928;BME280;51070;52.236;-0.892;2022-08-21T02:59:06;100658.19;;;15.85;70.13
62928;BME280;51070;52.236;-0.892;2022-08-21T03:01:31;100657.69;;;15.86;70.25
62928;BME280;51070;52.236;-0.892;2022-08-21T03:03:57;100656.80;;;15.88;70.29
62928;BME280;51070;52.236;-0.892;2022-08-21T03:06:22;100657.52;;;15.89;70.21
62928;BME280;51070;52.236;-0.892;2022-08-21T03:08:47;100659.95;;;15.89;70.35
62928;BME280;51070;52.236;-0.892;2022-08-21T03:11:14;100661.35;;;15.89;70.27
62928;BME280;51070;52.236;-0.892;2022-08-21T03:13:39;100660.48;;;15.88;70.34
62928;BME280;51070;52.236;-0.892;2022-08-21T03:16:05;100663.26;;;15.88;70.35
62928;BME280;51070;52.236;-0.892;2022-08-21T03:18:31;100663.58;;;15.85;70.57
62928;BME280;51070;52.236;-0.892;2022-08-21T03:20:56;100658.84;;;15.81;70.59
62928;BME280;51070;52.236;-0.892;2022-08-21T03:23:22;100654.44;;;15.78;71.00
62928;BME280;51070;52.236;-0.892;2022-08-21T03:25:47;100651.61;;;15.73;71.17
62928;BME280;51070;52.236;-0.892;2022-08-21T03:28:14;100646.85;;;15.67;71.37
62928;BME280;51070;52.236;-0.892;2022-08-21T03:30:41;100646.48;;;15.64;71.46
62928;BME280;51070;52.236;-0.892;2022-08-21T03:33:06;100642.82;;;15.64;71.56
62928;BME280;51070;52.236;-0.892;2022-08-21T03:35:31;100637.06;;;15.64;71.70
62928;BME280;51070;52.236;-0.892;2022-08-21T03:37:57;100636.88;;;15.63;71.71
62928;BME280;51070;52.236;-0.892;2022-08-21T03:40:23;100635.11;;;15.62;71.85
62928;BME280;51070;52.236;-0.892;2022-08-21T03:42:49;100633.86;;;15.58;71.98
62928;BME280;51070;52.236;-0.892;2022-08-21T03:45:15;100629.44;;;15.52;72.55
62928;BME280;51070;52.236;-0.892;2022-08-21T03:50:37;100637.50;;;15.42;72.61
62928;BME280;51070;52.236;-0.892;2022-08-21T03:53:04;100636.98;;;15.44;72.59
62928;BME280;51070;52.236;-0.892;2022-08-21T03:55:30;100642.20;;;15.44;72.64
62928;BME280;51070;52.236;-0.892;2022-08-21T03:57:55;100647.63;;;15.46;72.65
62928;BME280;51070;52.236;-0.892;2022-08-21T04:00:21;100642.58;;;15.45;72.66
62928;BME280;51070;52.236;-0.892;2022-08-21T04:02:47;100643.25;;;15.45;72.74
62928;BME280;51070;52.236;-0.892;2022-08-21T04:05:13;100641.35;;;15.45;72.70
62928;BME280;51070;52.236;-0.892;2022-08-21T04:07:39;100634.58;;;15.46;72.79
62928;BME280;51070;52.236;-0.892;2022-08-21T04:10:05;100631.82;;;15.49;72.90
62928;BME280;51070;52.236;-0.892;2022-08-21T04:12:31;100636.08;;;15.53;72.88
62928;BME280;51070;52.236;-0.892;2022-08-21T04:14:56;100633.66;;;15.56;72.88
62928;BME280;51070;52.236;-0.892;2022-08-21T04:17:22;100634.57;;;15.59;72.99
62928;BME280;51070;52.236;-0.892;2022-08-21T04:19:47;100637.71;;;15.60;73.00
62928;BME280;51070;52.236;-0.892;2022-08-21T04:22:12;100634.27;;;15.64;73.03
62928;BME280;51070;52.236;-0.892;2022-08-21T04:24:38;100631.33;;;15.66;73.16
62928;BME280;51070;52.236;-0.892;2022-08-21T04:27:03;100633.24;;;15.65;73.05
62928;BME280;51070;52.236;-0.892;2022-08-21T04:29:28;100632.90;;;15.64;73.18
62928;BME280;51070;52.236;-0.892;2022-08-21T04:31:54;100639.16;;;15.64;73.00
62928;BME280;51070;52.236;-0.892;2022-08-21T04:34:19;100644.73;;;15.64;72.99
62928;BME280;51070;52.236;-0.892;2022-08-21T04:36:44;100645.08;;;15.65;72.98
62928;BME280;51070;52.236;-0.892;2022-08-21T04:39:10;100642.46;;;15.64;72.85
62928;BME280;51070;52.236;-0.892;2022-08-21T04:41:35;100644.17;;;15.62;73.01
62928;BME280;51070;52.236;-0.892;2022-08-21T04:44:02;100650.42;;;15.60;73.07
62928;BME280;51070;52.236;-0.892;2022-08-21T04:46:27;100652.16;;;15.59;73.28
62928;BME280;51070;52.236;-0.892;2022-08-21T04:48:53;100649.30;;;15.52;73.36
62928;BME280;51070;52.236;-0.892;2022-08-21T04:51:28;100650.45;;;15.50;73.33
62928;BME280;51070;52.236;-0.892;2022-08-21T04:56:24;100655.11;;;15.45;73.51
62928;BME280;51070;52.236;-0.892;2022-08-21T04:58:51;100659.45;;;15.44;73.44
62928;BME280;51070;52.236;-0.892;2022-08-21T05:01:19;100665.58;;;15.46;73.45
62928;BME280;51070;52.236;-0.892;2022-08-21T05:03:45;100666.83;;;15.49;73.51
62928;BME280;51070;52.236;-0.892;2022-08-21T05:06:12;100671.09;;;15.53;73.55
62928;BME280;51070;52.236;-0.892;2022-08-21T05:08:38;100673.02;;;15.56;73.43
62928;BME280;51070;52.236;-0.892;2022-08-21T05:11:05;100671.13;;;15.57;73.44
62928;BME280;51070;52.236;-0.892;2022-08-21T05:13:31;100669.75;;;15.60;73.28
62928;BME280;51070;52.236;-0.892;2022-08-21T05:15:56;100672.02;;;15.61;73.26
62928;BME280;51070;52.236;-0.892;2022-08-21T05:18:22;100671.70;;;15.62;73.28
62928;BME280;51070;52.236;-0.892;2022-08-21T05:20:48;100674.63;;;15.60;73.27
62928;BME280;51070;52.236;-0.892;2022-08-21T05:23:14;100678.27;;;15.57;73.36
62928;BME280;51070;52.236;-0.892;2022-08-21T05:25:40;100681.41;;;15.58;73.62
62928;BME280;51070;52.236;-0.892;2022-08-21T05:28:06;100682.60;;;15.56;73.52
62928;BME280;51070;52.236;-0.892;2022-08-21T05:30:31;100682.08;;;15.55;73.67
62928;BME280;51070;52.236;-0.892;2022-08-21T05:32:58;100684.38;;;15.57;73.63
62928;BME280;51070;52.236;-0.892;2022-08-21T05:35:24;100688.58;;;15.60;73.57
62928;BME280;51070;52.236;-0.892;2022-08-21T05:37:49;100687.91;;;15.63;73.60
62928;BME280;51070;52.236;-0.892;2022-08-21T05:40:15;100692.48;;;15.67;73.60
62928;BME280;51070;52.236;-0.892;2022-08-21T05:42:40;100693.02;;;15.68;73.63
62928;BME280;51070;52.236;-0.892;2022-08-21T05:45:05;100695.52;;;15.75;73.62
62928;BME280;51070;52.236;-0.892;2022-08-21T05:47:31;100693.50;;;15.81;73.39
62928;BME280;51070;52.236;-0.892;2022-08-21T05:49:56;100692.88;;;15.86;73.27
62928;BME280;51070;52.236;-0.892;2022-08-21T05:52:22;100696.22;;;15.90;73.19
62928;BME280;51070;52.236;-0.892;2022-08-21T05:54:47;100692.58;;;15.93;73.10
62928;BME280;51070;52.236;-0.892;2022-08-21T05:57:13;100696.24;;;15.92;72.94
62928;BME280;51070;52.236;-0.892;2022-08-21T05:59:38;100695.20;;;15.94;72.93
62928;BME280;51070;52.236;-0.892;2022-08-21T06:02:03;100696.48;;;15.99;72.89
62928;BME280;51070;52.236;-0.892;2022-08-21T06:04:29;100698.47;;;16.07;72.72
62928;BME280;51070;52.236;-0.892;2022-08-21T06:06:54;100697.32;;;16.14;72.52
62928;BME280;51070;52.236;-0.892;2022-08-21T06:09:20;100699.13;;;16.22;72.34
62928;BME280;51070;52.236;-0.892;2022-08-21T06:11:46;100700.79;;;16.31;72.11
62928;BME280;51070;52.236;-0.892;2022-08-21T06:14:13;100697.90;;;16.41;71.85
62928;BME280;51070;52.236;-0.892;2022-08-21T06:16:39;100700.31;;;16.57;71.68
62928;BME280;51070;52.236;-0.892;2022-08-21T06:19:04;100700.61;;;16.72;71.24
62928;BME280;51070;52.236;-0.892;2022-08-21T06:21:30;100701.40;;;16.87;70.83
62928;BME280;51070;52.236;-0.892;2022-08-21T06:23:55;100703.05;;;16.98;70.36
62928;BME280;51070;52.236;-0.892;2022-08-21T06:26:20;100695.73;;;17.02;70.19
62928;BME280;51070;52.236;-0.892;2022-08-21T06:28:46;100692.13;;;17.13;70.22
62928;BME280;51070;52.236;-0.892;2022-08-21T06:31:16;100694.63;;;17.24;69.54
62928;BME280;51070;52.236;-0.892;2022-08-21T06:33:41;100697.11;;;17.32;69.54
62928;BME280;51070;52.236;-0.892;2022-08-21T06:36:07;100695.42;;;17.48;69.44
62928;BME280;51070;52.236;-0.892;2022-08-21T06:38:32;100692.36;;;17.66;68.74
62928;BME280;51070;52.236;-0.892;2022-08-21T06:40:58;100699.92;;;17.77;68.38
62928;BME280;51070;52.236;-0.892;2022-08-21T06:43:23;100697.86;;;17.98;68.11
62928;BME280;51070;52.236;-0.892;2022-08-21T06:45:48;100697.01;;;18.10;67.18
62928;BME280;51070;52.236;-0.892;2022-08-21T06:48:14;100695.26;;;18.10;66.78
62928;BME280;51070;52.236;-0.892;2022-08-21T06:50:39;100702.24;;;18.03;66.87
62928;BME280;51070;52.236;-0.892;2022-08-21T06:53:11;100704.16;;;17.98;66.90
62928;BME280;51070;52.236;-0.892;2022-08-21T06:55:37;100696.64;;;17.95;66.94
62928;BME280;51070;52.236;-0.892;2022-08-21T06:58:03;100695.06;;;17.98;67.07
62928;BME280;51070;52.236;-0.892;2022-08-21T07:00:29;100691.23;;;18.01;66.94
62928;BME280;51070;52.236;-0.892;2022-08-21T07:02:54;100689.11;;;18.03;66.78
62928;BME280;51070;52.236;-0.892;2022-08-21T07:05:19;100687.56;;;18.09;66.82
62928;BME280;51070;52.236;-0.892;2022-08-21T07:07:45;100689.67;;;18.20;66.69
62928;BME280;51070;52.236;-0.892;2022-08-21T07:10:11;100690.72;;;18.30;66.40
62928;BME280;51070;52.236;-0.892;2022-08-21T07:12:36;100690.19;;;18.36;66.27
62928;BME280;51070;52.236;-0.892;2022-08-21T07:15:02;100693.17;;;18.38;66.22
62928;BME280;51070;52.236;-0.892;2022-08-21T07:17:27;100698.94;;;18.45;66.11
62928;BME280;51070;52.236;-0.892;2022-08-21T07:19:52;100699.83;;;18.57;65.82
62928;BME280;51070;52.236;-0.892;2022-08-21T07:22:18;100695.45;;;18.83;65.58
62928;BME280;51070;52.236;-0.892;2022-08-21T07:24:45;100696.42;;;19.07;64.83
62928;BME280;51070;52.236;-0.892;2022-08-21T07:27:10;100696.17;;;19.30;64.28
62928;BME280;51070;52.236;-0.892;2022-08-21T07:29:36;100697.18;;;19.46;63.75
62928;BME280;51070;52.236;-0.892;2022-08-21T07:32:01;100689.80;;;19.53;63.48
62928;BME280;51070;52.236;-0.892;2022-08-21T07:34:26;100686.96;;;19.58;63.35
62928;BME280;51070;52.236;-0.892;2022-08-21T07:36:52;100692.89;;;19.65;63.28
62928;BME280;51070;52.236;-0.892;2022-08-21T07:39:18;100697.04;;;19.75;62.79
62928;BME280;51070;52.236;-0.892;2022-08-21T07:41:43;100689.66;;;19.78;62.07
62928;BME280;51070;52.236;-0.892;2022-08-21T07:44:08;100686.66;;;19.81;61.79
62928;BME280;51070;52.236;-0.892;2022-08-21T07:46:33;100683.10;;;19.90;61.71
62928;BME280;51070;52.236;-0.892;2022-08-21T07:48:59;100671.45;;;19.99;61.60
62928;BME280;51070;52.236;-0.892;2022-08-21T07:51:25;100671.39;;;20.10;61.28
62928;BME280;51070;52.236;-0.892;2022-08-21T07:53:52;100674.20;;;20.07;60.62
62928;BME280;51070;52.236;-0.892;2022-08-21T07:56:22;100676.15;;;20.04;60.66
62928;BME280;51070;52.236;-0.892;2022-08-21T07:58:47;100673.49;;;20.09;60.67
62928;BME280;51070;52.236;-0.892;2022-08-21T08:01:14;100675.58;;;20.13;60.56
62928;BME280;51070;52.236;-0.892;2022-08-21T08:03:39;100673.81;;;20.13;60.39
62928;BME280;51070;52.236;-0.892;2022-08-21T08:06:06;100671.32;;;20.17;60.68
62928;BME280;51070;52.236;-0.892;2022-08-21T08:08:33;100663.88;;;20.27;60.45
62928;BME280;51070;52.236;-0.892;2022-08-21T08:10:59;100661.91;;;20.53;59.89
62928;BME280;51070;52.236;-0.892;2022-08-21T08:13:26;100662.87;;;21.53;57.81
62928;BME280;51070;52.236;-0.892;2022-08-21T08:15:52;100665.48;;;22.87;54.43
62928;BME280;51070;52.236;-0.892;2022-08-21T08:18:17;100668.37;;;24.09;52.67
62928;BME280;51070;52.236;-0.892;2022-08-21T08:20:42;100669.35;;;24.95;50.19
62928;BME280;51070;52.236;-0.892;2022-08-21T08:23:12;100674.09;;;25.03;49.60
62928;BME280;51070;52.236;-0.892;2022-08-21T08:25:38;100673.38;;;24.83;49.01
62928;BME280;51070;52.236;-0.892;2022-08-21T08:28:04;100673.87;;;24.98;48.74
62928;BME280;51070;52.236;-0.892;2022-08-21T08:30:29;100671.89;;;25.30;48.14
62928;BME280;51070;52.236;-0.892;2022-08-21T08:32:55;100675.92;;;25.90;47.10
62928;BME280;51070;52.236;-0.892;2022-08-21T08:35:22;100674.18;;;26.60;45.55
62928;BME280;51070;52.236;-0.892;2022-08-21T08:37:47;100684.20;;;27.17;44.67
62928;BME280;51070;52.236;-0.892;2022-08-21T08:40:13;100687.98;;;27.76;43.64
62928;BME280;51070;52.236;-0.892;2022-08-21T08:42:39;100687.32;;;28.20;42.39
62928;BME280;51070;52.236;-0.892;2022-08-21T08:45:06;100688.63;;;29.29;40.94
62928;BME280;51070;52.236;-0.892;2022-08-21T08:47:34;100686.78;;;30.64;39.01
62928;BME280;51070;52.236;-0.892;2022-08-21T08:50:21;100688.13;;;31.46;36.50
62928;BME280;51070;52.236;-0.892;2022-08-21T08:52:49;100692.03;;;31.63;36.69
62928;BME280;51070;52.236;-0.892;2022-08-21T08:55:18;100696.20;;;32.00;36.00
62928;BME280;51070;52.236;-0.892;2022-08-21T08:57:46;100692.28;;;32.28;34.51
62928;BME280;51070;52.236;-0.892;2022-08-21T09:00:13;100689.04;;;31.91;33.68
62928;BME280;51070;52.236;-0.892;2022-08-21T09:02:39;100690.46;;;31.26;35.03
62928;BME280;51070;52.236;-0.892;2022-08-21T09:05:06;100688.06;;;30.67;35.49
62928;BME280;51070;52.236;-0.892;2022-08-21T09:08:20;100691.92;;;29.96;35.79
62928;BME280;51070;52.236;-0.892;2022-08-21T09:10:25;100687.73;;;29.14;37.35
62928;BME280;51070;52.236;-0.892;2022-08-21T09:13:11;100692.82;;;28.41;38.33
62928;BME280;51070;52.236;-0.892;2022-08-21T09:20:54;100697.58;;;27.05;40.00
62928;BME280;51070;52.236;-0.892;2022-08-21T09:28:18;100694.09;;;26.26;40.12
62928;BME280;51070;52.236;-0.892;2022-08-21T09:30:43;100701.84;;;25.83;41.17
62928;BME280;51070;52.236;-0.892;2022-08-21T09:33:09;100698.36;;;25.86;41.67
62928;BME280;51070;52.236;-0.892;2022-08-21T09:35:36;100699.23;;;25.81;41.69
62928;BME280;51070;52.236;-0.892;2022-08-21T09:38:22;100695.77;;;25.67;41.98
62928;BME280;51070;52.236;-0.892;2022-08-21T09:40:54;100697.98;;;25.70;42.24
62928;BME280;51070;52.236;-0.892;2022-08-21T09:43:21;100696.39;;;25.64;42.46
62928;BME280;51070;52.236;-0.892;2022-08-21T09:45:49;100696.27;;;25.49;42.81
62928;BME280;51070;52.236;-0.892;2022-08-21T09:48:25;100695.30;;;25.28;42.88
62928;BME280;51070;52.236;-0.892;2022-08-21T09:50:52;100695.98;;;25.17;43.53
62928;BME280;51070;52.236;-0.892;2022-08-21T09:53:19;100699.84;;;25.18;43.68
62928;BME280;51070;52.236;-0.892;2022-08-21T09:58:33;100703.95;;;25.17;43.61
62928;BME280;51070;52.236;-0.892;2022-08-21T10:01:00;100708.85;;;25.12;43.64
62928;BME280;51070;52.236;-0.892;2022-08-21T10:03:25;100703.14;;;25.07;44.10
62928;BME280;51070;52.236;-0.892;2022-08-21T10:08:17;100700.75;;;25.29;43.94
62928;BME280;51070;52.236;-0.892;2022-08-21T10:10:43;100700.77;;;25.28;43.32
62928;BME280;51070;52.236;-0.892;2022-08-21T10:13:13;100698.84;;;25.22;43.28
62928;BME280;51070;52.236;-0.892;2022-08-21T10:18:28;100696.30;;;25.24;42.70
62928;BME280;51070;52.236;-0.892;2022-08-21T10:29:14;100695.27;;;25.23;42.90
62928;BME280;51070;52.236;-0.892;2022-08-21T10:36:20;100696.70;;;25.47;41.90
62928;BME280;51070;52.236;-0.892;2022-08-21T10:38:58;100697.97;;;25.09;42.27
62928;BME280;51070;52.236;-0.892;2022-08-21T10:44:35;100694.05;;;24.50;43.21
62928;BME280;51070;52.236;-0.892;2022-08-21T10:47:05;100694.77;;;24.36;43.75
62928;BME280;51070;52.236;-0.892;2022-08-21T10:49:40;100691.97;;;24.27;44.18
62928;BME280;51070;52.236;-0.892;2022-08-21T10:54:53;100694.37;;;23.92;45.10
62928;BME280;51070;52.236;-0.892;2022-08-21T11:00:09;100703.13;;;23.95;45.66
62928;BME280;51070;52.236;-0.892;2022-08-21T11:07:43;100704.86;;;24.11;45.03
62928;BME280;51070;52.236;-0.892;2022-08-21T11:10:37;100699.52;;;24.13;44.91
62928;BME280;51070;52.236;-0.892;2022-08-21T11:13:17;100708.91;;;24.12;45.06
62928;BME280;51070;52.236;-0.892;2022-08-21T11:15:53;100705.42;;;24.09;44.99
62928;BME280;51070;52.236;-0.892;2022-08-21T11:18:31;100710.30;;;24.05;45.24
62928;BME280;51070;52.236;-0.892;2022-08-21T11:21:06;100714.02;;;23.97;45.46
62928;BME280;51070;52.236;-0.892;2022-08-21T11:24:03;100711.86;;;24.06;45.14
62928;BME280;51070;52.236;-0.892;2022-08-21T11:26:43;100708.44;;;24.17;44.48
62928;BME280;51070;52.236;-0.892;2022-08-21T11:29:19;100703.65;;;24.33;44.70
62928;BME280;51070;52.236;-0.892;2022-08-21T11:35:41;100695.19;;;24.94;43.14
62928;BME280;51070;52.236;-0.892;2022-08-21T11:43:34;100684.41;;;25.32;41.77
62928;BME280;51070;52.236;-0.892;2022-08-21T11:54:28;100690.45;;;25.43;40.72
62928;BME280;51070;52.236;-0.892;2022-08-21T11:57:03;100688.70;;;25.05;41.38
62928;BME280;51070;52.236;-0.892;2022-08-21T11:59:54;100686.39;;;25.05;41.95
62928;BME280;51070;52.236;-0.892;2022-08-21T12:02:24;100687.79;;;25.19;41.75
62928;BME280;51070;52.236;-0.892;2022-08-21T12:04:56;100689.13;;;25.40;41.64
62928;BME280;51070;52.236;-0.892;2022-08-21T12:07:44;100689.34;;;25.44;41.56
62928;BME280;51070;52.236;-0.892;2022-08-21T12:10:15;100686.39;;;25.42;41.48
62928;BME280;51070;52.236;-0.892;2022-08-21T12:12:44;100688.73;;;25.47;40.52
62928;BME280;51070;52.236;-0.892;2022-08-21T12:18:21;100688.48;;;25.49;40.27
62928;BME280;51070;52.236;-0.892;2022-08-21T12:27:29;100691.75;;;25.04;40.97
62928;BME280;51070;52.236;-0.892;2022-08-21T12:30:06;100687.64;;;24.93;41.65
62928;BME280;51070;52.236;-0.892;2022-08-21T12:32:43;100689.86;;;24.89;41.82
62928;BME280;51070;52.236;-0.892;2022-08-21T12:35:18;100692.45;;;24.91;42.04
62928;BME280;51070;52.236;-0.892;2022-08-21T12:37:48;100691.83;;;24.95;42.26
62928;BME280;51070;52.236;-0.892;2022-08-21T12:40:25;100689.81;;;24.97;42.33
62928;BME280;51070;52.236;-0.892;2022-08-21T12:42:55;100690.73;;;24.95;42.38
62928;BME280;51070;52.236;-0.892;2022-08-21T12:45:30;100688.98;;;24.95;42.35
62928;BME280;51070;52.236;-0.892;2022-08-21T12:48:06;100690.00;;;24.90;42.22
62928;BME280;51070;52.236;-0.892;2022-08-21T12:50:55;100691.48;;;24.80;42.59
62928;BME280;51070;52.236;-0.892;2022-08-21T12:53:26;100689.96;;;24.57;44.16
62928;BME280;51070;52.236;-0.892;2022-08-21T12:55:54;100688.40;;;24.36;44.96
62928;BME280;51070;52.236;-0.892;2022-08-21T12:58:25;100684.36;;;24.12;45.67
62928;BME280;51070;52.236;-0.892;2022-08-21T13:01:07;100688.23;;;23.90;46.85
62928;BME280;51070;52.236;-0.892;2022-08-21T13:03:38;100689.61;;;23.76;47.02
62928;BME280;51070;52.236;-0.892;2022-08-21T13:06:06;100689.43;;;23.68;47.20
62928;BME280;51070;52.236;-0.892;2022-08-21T13:08:34;100689.16;;;23.72;47.53
62928;BME280;51070;52.236;-0.892;2022-08-21T13:11:04;100688.20;;;23.83;47.93
62928;BME280;51070;52.236;-0.892;2022-08-21T13:13:32;100681.36;;;23.98;47.61
62928;BME280;51070;52.236;-0.892;2022-08-21T13:16:00;100676.03;;;24.21;47.20
62928;BME280;51070;52.236;-0.892;2022-08-21T13:18:29;100669.77;;;24.59;47.07
62928;BME280;51070;52.236;-0.892;2022-08-21T13:21:14;100669.68;;;25.03;45.60
62928;BME280;51070;52.236;-0.892;2022-08-21T13:23:41;100668.40;;;25.23;43.66
62928;BME280;51070;52.236;-0.892;2022-08-21T13:26:32;100667.73;;;25.21;44.18
62928;BME280;51070;52.236;-0.892;2022-08-21T13:29:07;100666.08;;;25.24;43.76
62928;BME280;51070;52.236;-0.892;2022-08-21T13:31:33;100668.89;;;25.30;43.15
62928;BME280;51070;52.236;-0.892;2022-08-21T13:33:58;100668.09;;;25.33;42.69
62928;BME280;51070;52.236;-0.892;2022-08-21T13:36:27;100667.13;;;25.36;42.49
62928;BME280;51070;52.236;-0.892;2022-08-21T13:38:54;100666.20;;;25.49;42.33
62928;BME280;51070;52.236;-0.892;2022-08-21T13:41:30;100664.52;;;25.59;41.30
62928;BME280;51070;52.236;-0.892;2022-08-21T13:44:04;100662.52;;;25.42;40.95
62928;BME280;51070;52.236;-0.892;2022-08-21T13:46:34;100662.42;;;25.27;42.14
62928;BME280;51070;52.236;-0.892;2022-08-21T13:49:01;100660.05;;;25.24;41.98
62928;BME280;51070;52.236;-0.892;2022-08-21T13:51:29;100660.67;;;25.02;42.04
62928;BME280;51070;52.236;-0.892;2022-08-21T13:53:56;100663.42;;;24.92;42.32
62928;BME280;51070;52.236;-0.892;2022-08-21T13:56:29;100661.35;;;24.77;43.10
62928;BME280;51070;52.236;-0.892;2022-08-21T13:58:57;100659.47;;;24.88;43.26
62928;BME280;51070;52.236;-0.892;2022-08-21T14:01:27;100656.02;;;25.23;43.05
62928;BME280;51070;52.236;-0.892;2022-08-21T14:03:57;100661.11;;;25.48;42.32